createdAt,value
2022-08-17T00:02:26.152Z,17.31
2022-08-17T00:05:33.488Z,17.21
2022-08-17T00:08:38.419Z,17.16
2022-08-17T00:11:43.085Z,17.25
2022-08-17T00:15:10.339Z,17.31
2022-08-17T00:18:53.778Z,17.42
2022-08-17T00:22:28.658Z,17.43
2022-08-17T00:25:05.287Z,17.33
2022-08-17T00:28:08.009Z,17.11
2022-08-17T00:31:11.533Z,17.09
2022-08-17T00:34:14.005Z,17.06
2022-08-17T00:37:17.868Z,17.06
2022-08-17T00:40:20.689Z,17.09
2022-08-17T00:43:32.042Z,17.12
2022-08-17T00:46:40.373Z,17.16
2022-08-17T00:49:42.861Z,17.18
2022-08-17T00:52:55.041Z,17.22
2022-08-17T00:55:58.599Z,17.17
2022-08-17T00:59:02.958Z,17.10
2022-08-17T01:02:07.214Z,16.96
2022-08-17T01:05:13.410Z,16.87
2022-08-17T01:08:20.351Z,16.83
2022-08-17T01:11:22.890Z,16.82
2022-08-17T01:14:26.930Z,16.83
2022-08-17T01:17:29.741Z,16.81
2022-08-17T01:20:43.107Z,16.82
2022-08-17T01:23:52.873Z,16.90
2022-08-17T01:26:56.607Z,16.96
2022-08-17T01:30:04.210Z,16.98
2022-08-17T01:33:26.643Z,16.77
2022-08-17T01:36:29.331Z,16.69
2022-08-17T01:39:37.060Z,16.74
2022-08-17T01:42:43.477Z,16.62
2022-08-17T01:45:49.527Z,16.42
2022-08-17T01:49:07.995Z,16.32
2022-08-17T01:52:12.944Z,16.27
2022-08-17T01:55:24.575Z,16.31
2022-08-17T01:58:29.853Z,16.36
2022-08-17T02:01:34.614Z,16.43
2022-08-17T02:04:37.264Z,16.39
2022-08-17T02:07:56.015Z,16.35
2022-08-17T02:11:06.069Z,16.35
2022-08-17T02:14:14.325Z,16.28
2022-08-17T02:17:16.899Z,16.27
2022-08-17T02:20:41.376Z,16.21
2022-08-17T02:23:47.423Z,16.13
2022-08-17T02:26:51.223Z,16.08
2022-08-17T02:29:53.717Z,16.04
2022-08-17T02:32:57.030Z,16.11
2022-08-17T02:35:59.560Z,16.11
2022-08-17T02:39:03.118Z,16.09
2022-08-17T02:42:07.220Z,16.08
2022-08-17T02:45:13.545Z,16.10
2022-08-17T02:48:16.014Z,16.12
2022-08-17T02:51:33.413Z,16.13
2022-08-17T02:54:41.473Z,16.19
2022-08-17T02:57:46.525Z,16.27
2022-08-17T03:00:49.083Z,16.22
2022-08-17T03:03:51.554Z,16.21
2022-08-17T03:06:55.113Z,16.27
2022-08-17T03:09:57.546Z,16.29
2022-08-17T03:13:01.653Z,16.22
2022-08-17T03:16:04.850Z,16.05
2022-08-17T03:19:07.296Z,15.92
2022-08-17T03:22:36.713Z,15.90
2022-08-17T03:25:34.949Z,15.99
2022-08-17T03:28:39.660Z,16.00
2022-08-17T03:31:42.113Z,15.96
2022-08-17T03:34:44.599Z,16.00
2022-08-17T03:37:47.636Z,16.13
2022-08-17T03:41:03.168Z,16.07
2022-08-17T03:44:07.254Z,16.02
2022-08-17T03:47:27.425Z,15.97
2022-08-17T03:51:02.327Z,15.93
2022-08-17T03:54:22.810Z,15.99
2022-08-17T03:57:25.755Z,16.02
2022-08-17T04:00:29.575Z,16.15
2022-08-17T04:03:32.049Z,16.28
2022-08-17T04:06:34.579Z,16.43
2022-08-17T04:09:37.446Z,16.48
2022-08-17T04:12:46.358Z,16.44
2022-08-17T04:15:50.694Z,16.42
2022-08-17T04:18:53.688Z,16.47
2022-08-17T04:21:57.718Z,16.53
2022-08-17T04:25:00.299Z,16.69
2022-08-17T04:28:03.942Z,16.93
2022-08-17T04:31:11.425Z,18.10
2022-08-17T04:34:13.874Z,19.24
2022-08-17T04:37:16.421Z,20.17
2022-08-17T04:40:37.776Z,20.85
2022-08-17T04:43:42.123Z,21.55
2022-08-17T04:46:46.856Z,22.14
2022-08-17T04:49:49.279Z,22.67
2022-08-17T04:52:51.962Z,23.09
2022-08-17T04:55:55.412Z,23.50
2022-08-17T04:59:00.328Z,23.89
2022-08-17T05:02:04.130Z,24.28
2022-08-17T05:05:07.332Z,24.36
2022-08-17T05:08:10.428Z,24.82
2022-08-17T05:11:12.876Z,24.89
2022-08-17T05:14:15.867Z,25.53
2022-08-17T05:17:19.635Z,25.79
2022-08-17T05:20:22.520Z,26.10
2022-08-17T05:23:27.438Z,26.51
2022-08-17T05:26:41.722Z,26.85
2022-08-17T05:29:44.989Z,27.17
2022-08-17T05:32:54.494Z,27.43
2022-08-17T05:35:59.462Z,27.38
2022-08-17T05:39:02.212Z,27.41
2022-08-17T05:42:04.987Z,27.43
2022-08-17T05:45:08.630Z,27.77
2022-08-17T05:48:13.124Z,27.52
2022-08-17T05:51:32.916Z,27.01
2022-08-17T05:54:44.603Z,26.62
2022-08-17T05:58:00.860Z,26.12
2022-08-17T06:01:10.942Z,25.95
2022-08-17T06:04:35.768Z,25.96
2022-08-17T06:07:49.290Z,26.26
2022-08-17T06:10:59.745Z,26.28
2022-08-17T06:14:14.550Z,26.50
2022-08-17T06:17:21.950Z,26.95
2022-08-17T06:20:27.996Z,27.04
2022-08-17T06:23:35.987Z,27.44
2022-08-17T06:26:43.412Z,27.70
2022-08-17T06:29:53.912Z,28.00
2022-08-17T06:33:05.944Z,28.07
2022-08-17T06:36:24.974Z,28.45
2022-08-17T06:39:38.804Z,28.83
2022-08-17T06:43:06.180Z,29.03
2022-08-17T06:46:14.332Z,29.43
2022-08-17T06:49:25.339Z,29.99
2022-08-17T06:52:46.923Z,30.52
2022-08-17T06:55:56.793Z,30.58
2022-08-17T06:59:00.761Z,30.91
2022-08-17T07:02:08.105Z,30.59
2022-08-17T07:05:10.753Z,30.41
2022-08-17T07:08:20.595Z,30.85
2022-08-17T07:11:28.528Z,31.25
2022-08-17T07:14:36.604Z,31.09
2022-08-17T07:17:56.826Z,31.77
2022-08-17T07:21:08.371Z,32.13
2022-08-17T07:24:30.464Z,32.53
2022-08-17T07:27:37.325Z,32.58
2022-08-17T07:30:45.907Z,32.51
2022-08-17T07:34:01.163Z,32.69
2022-08-17T07:37:05.388Z,33.34
2022-08-17T07:40:23.561Z,33.72
2022-08-17T07:43:29.532Z,34.33
2022-08-17T07:46:54.107Z,34.22
2022-08-17T07:49:56.553Z,34.29
2022-08-17T07:53:10.626Z,34.51
2022-08-17T07:56:34.433Z,34.20
2022-08-17T07:59:40.738Z,34.45
2022-08-17T08:02:59.856Z,34.58
2022-08-17T08:06:04.107Z,34.98
2022-08-17T08:09:06.541Z,35.03
2022-08-17T08:12:33.787Z,35.04
2022-08-17T08:15:40.307Z,34.93
2022-08-17T08:18:55.915Z,34.64
2022-08-17T08:22:06.038Z,34.55
2022-08-17T08:25:20.994Z,34.63
2022-08-17T08:28:30.866Z,34.77
2022-08-17T08:31:48.487Z,35.38
2022-08-17T08:35:03.867Z,34.90
2022-08-17T08:38:16.233Z,34.96
2022-08-17T08:41:31.444Z,35.03
2022-08-17T08:45:00.585Z,35.24
2022-08-17T08:48:53.899Z,36.01
2022-08-17T08:51:52.767Z,35.93
2022-08-17T08:55:03.935Z,35.29
2022-08-17T08:58:31.455Z,35.95
2022-08-17T09:01:40.286Z,36.16
2022-08-17T09:05:13.771Z,35.34
2022-08-17T09:08:28.787Z,35.02
2022-08-17T09:12:02.011Z,35.37
2022-08-17T09:15:12.294Z,35.08
2022-08-17T09:19:00.613Z,35.77
2022-08-17T09:21:52.473Z,35.62
2022-08-17T09:25:00.875Z,35.61
2022-08-17T09:28:08.703Z,36.36
2022-08-17T09:31:17.647Z,36.62
2022-08-17T09:34:33.161Z,36.99
2022-08-17T09:37:44.601Z,35.92
2022-08-17T09:40:53.248Z,35.10
2022-08-17T09:44:03.315Z,35.62
2022-08-17T09:47:11.867Z,35.75
2022-08-17T09:50:20.150Z,35.34
2022-08-17T09:53:44.754Z,35.79
2022-08-17T09:57:25.922Z,35.06
2022-08-17T10:00:25.102Z,34.20
2022-08-17T10:03:44.118Z,34.13
2022-08-17T10:06:55.389Z,34.72
2022-08-17T10:10:02.562Z,35.37
2022-08-17T10:13:11.000Z,36.28
2022-08-17T10:16:22.650Z,35.92
2022-08-17T10:19:34.232Z,34.19
2022-08-17T10:23:02.338Z,32.68
2022-08-17T10:26:14.838Z,32.46
2022-08-17T10:29:23.519Z,32.22
2022-08-17T10:32:34.387Z,32.93
2022-08-17T10:35:44.129Z,34.12
2022-08-17T10:38:50.832Z,34.10
2022-08-17T10:41:58.749Z,35.28
2022-08-17T10:45:07.090Z,35.53
2022-08-17T10:48:32.834Z,35.35
2022-08-17T10:51:37.974Z,35.26
2022-08-17T10:54:49.089Z,35.49
2022-08-17T10:57:54.798Z,36.47
2022-08-17T11:00:59.537Z,35.71
2022-08-17T11:04:12.120Z,34.34
2022-08-17T11:07:31.924Z,33.70
2022-08-17T11:10:51.985Z,32.94
2022-08-17T11:14:11.115Z,32.75
2022-08-17T11:17:36.190Z,33.28
2022-08-17T11:21:05.665Z,32.93
2022-08-17T11:24:30.538Z,32.60
2022-08-17T11:27:36.568Z,32.27
2022-08-17T11:30:46.981Z,32.25
2022-08-17T11:33:59.138Z,32.00
2022-08-17T11:37:31.791Z,31.92
2022-08-17T11:40:43.175Z,32.11
2022-08-17T11:44:01.907Z,33.52
2022-08-17T11:47:31.077Z,35.07
2022-08-17T11:51:02.931Z,35.01
2022-08-17T11:58:01.658Z,33.85
2022-08-17T12:01:06.911Z,33.57
2022-08-17T12:04:24.964Z,33.65
2022-08-17T12:07:27.611Z,33.41
2022-08-17T12:10:32.394Z,34.63
2022-08-17T12:13:43.233Z,34.37
2022-08-17T12:16:59.039Z,33.33
2022-08-17T12:20:16.142Z,33.59
2022-08-17T12:23:27.141Z,33.91
2022-08-17T12:26:33.202Z,34.24
2022-08-17T12:29:38.827Z,33.14
2022-08-17T12:32:47.625Z,32.79
2022-08-17T12:35:59.319Z,33.06
2022-08-17T12:39:13.860Z,33.79
2022-08-17T12:42:24.777Z,33.49
2022-08-17T12:45:30.286Z,33.32
2022-08-17T12:48:36.205Z,33.09
2022-08-17T12:51:44.091Z,32.66
2022-08-17T12:54:51.077Z,32.46
2022-08-17T12:57:55.390Z,32.88
2022-08-17T13:01:01.043Z,32.91
2022-08-17T13:04:06.557Z,32.84
2022-08-17T13:07:09.026Z,33.14
2022-08-17T13:10:18.250Z,34.04
2022-08-17T13:13:24.264Z,34.67
2022-08-17T13:16:28.779Z,35.59
2022-08-17T13:19:40.925Z,35.78
2022-08-17T13:22:45.288Z,36.24
2022-08-17T13:25:54.484Z,36.88
2022-08-17T13:28:57.431Z,37.47
2022-08-17T13:32:19.815Z,37.47
2022-08-17T13:35:39.267Z,37.08
2022-08-17T13:38:47.876Z,36.91
2022-08-17T13:41:52.235Z,36.10
2022-08-17T13:44:54.691Z,35.95
2022-08-17T13:48:10.954Z,35.11
2022-08-17T13:51:26.586Z,34.61
2022-08-17T13:54:31.946Z,34.47
2022-08-17T13:57:35.843Z,34.08
2022-08-17T14:00:39.436Z,33.73
2022-08-17T14:03:41.888Z,33.84
2022-08-17T14:06:53.997Z,33.54
2022-08-17T14:10:01.314Z,33.23
2022-08-17T14:13:04.597Z,33.48
2022-08-17T14:16:07.497Z,33.93
2022-08-17T14:19:11.510Z,35.09
2022-08-17T14:22:23.680Z,34.86
2022-08-17T14:25:28.759Z,34.36
2022-08-17T14:28:31.983Z,34.21
2022-08-17T14:31:37.623Z,33.70
2022-08-17T14:34:40.265Z,33.48
2022-08-17T14:37:45.645Z,33.42
2022-08-17T14:40:48.879Z,32.97
2022-08-17T14:43:52.889Z,32.61
2022-08-17T14:46:55.345Z,32.57
2022-08-17T14:49:59.147Z,32.32
2022-08-17T14:53:04.385Z,32.31
2022-08-17T14:56:07.322Z,32.26
2022-08-17T14:59:09.870Z,32.09
2022-08-17T15:02:13.177Z,31.93
2022-08-17T15:05:17.753Z,31.88
2022-08-17T15:08:21.566Z,32.11
2022-08-17T15:11:24.108Z,32.19
2022-08-17T15:14:26.664Z,32.27
2022-08-17T15:17:45.000Z,32.42
2022-08-17T15:20:52.735Z,32.44
2022-08-17T15:23:56.613Z,32.41
2022-08-17T15:26:59.071Z,32.20
2022-08-17T15:30:01.717Z,32.17
2022-08-17T15:33:05.090Z,32.13
2022-08-17T15:36:09.054Z,32.02
2022-08-17T15:39:12.850Z,32.03
2022-08-17T15:42:16.149Z,31.95
2022-08-17T15:45:24.607Z,31.74
2022-08-17T15:48:40.730Z,31.71
2022-08-17T15:51:43.281Z,31.73
2022-08-17T15:54:52.063Z,31.77
2022-08-17T15:57:55.233Z,31.67
2022-08-17T16:01:15.143Z,31.61
2022-08-17T16:04:29.722Z,31.65
2022-08-17T16:07:33.347Z,31.48
2022-08-17T16:10:37.336Z,31.32
2022-08-17T16:13:40.652Z,31.07
2022-08-17T16:16:43.150Z,30.92
2022-08-17T16:19:46.037Z,30.75
2022-08-17T16:22:50.878Z,30.55
2022-08-17T16:25:54.863Z,30.38
2022-08-17T16:28:59.145Z,30.12
2022-08-17T16:32:10.068Z,30.01
2022-08-17T16:35:15.359Z,30.00
2022-08-17T16:38:18.765Z,29.86
2022-08-17T16:41:45.290Z,29.70
2022-08-17T16:44:48.171Z,29.54
2022-08-17T16:47:52.030Z,29.31
2022-08-17T16:51:03.534Z,29.14
2022-08-17T16:54:08.275Z,28.97
2022-08-17T16:57:12.458Z,28.78
2022-08-17T17:00:16.986Z,28.70
2022-08-17T17:03:25.749Z,28.55
2022-08-17T17:06:40.688Z,28.39
2022-08-17T17:09:46.420Z,28.25
2022-08-17T17:13:03.566Z,28.24
2022-08-17T17:16:17.967Z,28.24
2022-08-17T17:19:34.356Z,28.16
2022-08-17T17:22:47.264Z,28.05
2022-08-17T17:25:55.787Z,27.99
2022-08-17T17:29:12.317Z,27.84
2022-08-17T17:32:21.395Z,27.68
2022-08-17T17:35:31.574Z,27.62
2022-08-17T17:38:41.435Z,27.43
2022-08-17T17:41:48.166Z,27.28
2022-08-17T17:45:00.365Z,27.29
2022-08-17T17:48:03.168Z,27.43
2022-08-17T17:51:16.038Z,27.41
2022-08-17T17:54:50.500Z,27.34
2022-08-17T17:58:04.159Z,27.17
2022-08-17T18:01:41.793Z,26.93
2022-08-17T18:05:00.107Z,26.81
2022-08-17T18:08:16.551Z,26.62
2022-08-17T18:11:32.370Z,26.47
2022-08-17T18:14:58.595Z,26.40
2022-08-17T18:18:26.240Z,26.38
2022-08-17T18:21:35.964Z,26.21
2022-08-17T18:24:40.546Z,26.14
2022-08-17T18:27:52.685Z,26.07
2022-08-17T18:31:07.865Z,25.94
2022-08-17T18:34:45.850Z,25.98
2022-08-17T18:37:50.218Z,25.87
2022-08-17T18:41:06.273Z,25.82
2022-08-17T18:44:24.643Z,25.75
2022-08-17T18:47:29.769Z,25.73
2022-08-17T18:50:41.223Z,25.80
2022-08-17T18:53:43.764Z,25.79
2022-08-17T18:56:51.574Z,25.70
2022-08-17T18:59:54.111Z,25.66
2022-08-17T19:03:00.827Z,25.63
2022-08-17T19:06:22.838Z,25.63
2022-08-17T19:09:33.589Z,25.56
2022-08-17T19:12:40.890Z,25.42
2022-08-17T19:16:13.124Z,25.43
2022-08-17T19:19:18.662Z,25.52
2022-08-17T19:22:29.303Z,25.45
2022-08-17T19:25:37.062Z,25.42
2022-08-17T19:28:48.018Z,25.27
2022-08-17T19:31:55.204Z,25.18
2022-08-17T19:34:58.439Z,25.19
2022-08-17T19:38:12.863Z,25.12
2022-08-17T19:41:23.372Z,25.00
2022-08-17T19:44:42.724Z,24.98
2022-08-17T19:48:01.671Z,24.89
2022-08-17T19:51:11.498Z,24.81
2022-08-17T19:54:22.089Z,24.76
2022-08-17T19:57:36.701Z,24.73
2022-08-17T20:00:46.926Z,24.52
2022-08-17T20:03:57.354Z,24.41
2022-08-17T20:07:04.398Z,24.38
2022-08-17T20:10:13.888Z,24.37
2022-08-17T20:13:33.525Z,24.28
2022-08-17T20:16:36.754Z,24.31
2022-08-17T20:19:48.557Z,24.27
2022-08-17T20:22:57.937Z,24.23
2022-08-17T20:26:17.179Z,24.22
2022-08-17T20:29:37.472Z,24.16
2022-08-17T20:32:52.919Z,24.06
2022-08-17T20:36:16.986Z,23.94
2022-08-17T20:39:34.654Z,23.88
2022-08-17T20:42:40.303Z,23.79
2022-08-17T20:46:20.192Z,23.62
2022-08-17T20:49:28.653Z,23.46
2022-08-17T20:52:52.372Z,23.45
2022-08-17T20:55:55.763Z,23.45
2022-08-17T20:59:00.760Z,23.46
2022-08-17T21:02:18.483Z,23.47
2022-08-17T21:05:32.330Z,23.47
2022-08-17T21:08:45.684Z,23.40
2022-08-17T21:12:03.733Z,23.41
2022-08-17T21:15:24.140Z,23.34
2022-08-17T21:18:35.925Z,23.27
2022-08-17T21:21:46.675Z,23.26
2022-08-17T21:24:58.639Z,23.28
2022-08-17T21:28:15.644Z,23.20
2022-08-17T21:31:35.844Z,23.17
2022-08-17T21:34:42.433Z,23.23
2022-08-17T21:37:47.943Z,23.12
2022-08-17T21:40:53.065Z,23.05
2022-08-17T21:44:03.047Z,22.98
2022-08-17T21:47:21.382Z,22.88
2022-08-17T21:50:26.220Z,22.79
2022-08-17T21:53:38.854Z,22.69
2022-08-17T21:56:46.812Z,22.59
2022-08-17T21:59:54.519Z,22.50
2022-08-17T22:03:01.070Z,22.46
2022-08-17T22:06:21.088Z,22.47
2022-08-17T22:09:26.536Z,22.43
2022-08-17T22:12:30.436Z,22.39
2022-08-17T22:15:36.906Z,22.33
2022-08-17T22:18:45.040Z,22.24
2022-08-17T22:21:47.534Z,22.20
2022-08-17T22:24:56.836Z,22.26
2022-08-17T22:28:02.195Z,22.27
2022-08-17T22:31:05.651Z,22.31
2022-08-17T22:34:13.779Z,22.33
2022-08-17T22:37:21.342Z,22.40
2022-08-17T22:40:32.661Z,22.36
2022-08-17T22:43:39.061Z,22.33
2022-08-17T22:46:56.235Z,22.25
2022-08-17T22:50:02.731Z,22.24
2022-08-17T22:53:34.024Z,22.24
2022-08-17T22:56:55.342Z,22.23
2022-08-17T22:59:57.991Z,22.28
2022-08-17T23:03:11.249Z,22.29
2022-08-17T23:06:15.103Z,22.29
2022-08-17T23:09:17.603Z,22.30
2022-08-17T23:12:26.227Z,22.39
2022-08-17T23:15:33.903Z,22.41
2022-08-17T23:18:36.401Z,22.43
2022-08-17T23:21:40.664Z,22.46
2022-08-17T23:24:46.361Z,22.50
2022-08-17T23:27:49.637Z,22.57
2022-08-17T23:30:52.231Z,22.63
2022-08-17T23:33:54.880Z,22.70
2022-08-17T23:37:02.099Z,22.69
2022-08-17T23:40:05.604Z,22.67
2022-08-17T23:43:23.336Z,22.61
2022-08-17T23:46:28.346Z,22.51
2022-08-17T23:49:31.227Z,22.43
2022-08-17T23:52:36.818Z,22.42
2022-08-17T23:55:39.329Z,22.35
2022-08-17T23:58:43.550Z,22.32
